createdAt,value
2018-10-07T00:01:27.664Z,12.30
2018-10-07T00:03:57.016Z,12.30
2018-10-07T00:06:26.332Z,12.30
2018-10-07T00:08:55.758Z,12.30
2018-10-07T00:11:25.160Z,12.30
2018-10-07T00:13:54.526Z,12.20
2018-10-07T00:16:24.021Z,12.20
2018-10-07T00:18:53.314Z,12.10
2018-10-07T00:21:22.692Z,12.10
2018-10-07T00:23:52.036Z,12.00
2018-10-07T00:26:21.335Z,12.10
2018-10-07T00:28:50.699Z,12.00
2018-10-07T00:31:20.087Z,12.00
2018-10-07T00:33:49.399Z,12.00
2018-10-07T00:36:18.839Z,12.00
2018-10-07T00:38:48.188Z,11.90
2018-10-07T00:41:17.567Z,11.90
2018-10-07T00:43:46.975Z,11.90
2018-10-07T00:46:16.409Z,11.80
2018-10-07T00:48:45.716Z,11.80
2018-10-07T00:51:15.007Z,11.80
2018-10-07T00:53:44.309Z,11.70
2018-10-07T00:56:13.607Z,11.60
2018-10-07T00:58:42.938Z,11.50
2018-10-07T01:01:12.191Z,11.50
2018-10-07T01:03:41.523Z,11.50
2018-10-07T01:06:10.836Z,11.50
2018-10-07T01:08:40.173Z,11.50
2018-10-07T01:11:09.447Z,11.50
2018-10-07T01:13:38.751Z,11.50
2018-10-07T01:16:08.138Z,11.50
2018-10-07T01:18:37.461Z,11.50
2018-10-07T01:21:06.754Z,11.50
2018-10-07T01:23:36.122Z,11.40
2018-10-07T01:26:05.410Z,11.40
2018-10-07T01:28:34.907Z,11.40
2018-10-07T01:31:04.265Z,11.40
2018-10-07T01:33:33.584Z,11.40
2018-10-07T01:36:02.899Z,11.40
2018-10-07T01:38:32.155Z,11.40
2018-10-07T01:41:01.537Z,11.40
2018-10-07T01:43:30.850Z,11.40
2018-10-07T01:46:00.192Z,11.30
2018-10-07T01:48:29.459Z,11.30
2018-10-07T01:50:58.795Z,11.30
2018-10-07T01:53:28.204Z,11.30
2018-10-07T01:55:57.488Z,11.30
2018-10-07T01:58:26.791Z,11.30
2018-10-07T02:00:56.116Z,11.30
2018-10-07T02:03:25.363Z,11.20
2018-10-07T02:05:54.719Z,11.20
2018-10-07T02:08:23.993Z,11.20
2018-10-07T02:10:53.255Z,11.20
2018-10-07T02:13:22.576Z,11.20
2018-10-07T02:15:51.887Z,11.20
2018-10-07T02:18:21.198Z,11.20
2018-10-07T02:20:50.542Z,11.10
2018-10-07T02:23:19.887Z,11.00
2018-10-07T02:25:49.138Z,11.00
2018-10-07T02:28:18.648Z,10.90
2018-10-07T02:30:47.894Z,10.90
2018-10-07T02:33:17.283Z,10.90
2018-10-07T02:35:46.585Z,10.90
2018-10-07T02:38:16.016Z,10.80
2018-10-07T02:40:45.343Z,10.70
2018-10-07T02:43:14.610Z,10.70
2018-10-07T02:45:43.922Z,10.60
2018-10-07T02:48:13.230Z,10.60
2018-10-07T02:50:42.776Z,10.60
2018-10-07T02:53:12.218Z,10.60
2018-10-07T02:55:41.574Z,10.50
2018-10-07T02:58:11.077Z,10.50
2018-10-07T03:00:40.412Z,10.50
2018-10-07T03:03:09.735Z,10.50
2018-10-07T03:05:39.053Z,10.50
2018-10-07T03:08:08.311Z,10.50
2018-10-07T03:10:37.539Z,10.60
2018-10-07T03:13:06.913Z,10.60
2018-10-07T03:15:36.216Z,10.60
2018-10-07T03:18:05.584Z,10.50
2018-10-07T03:20:34.822Z,10.50
2018-10-07T03:23:04.135Z,10.50
2018-10-07T03:25:33.454Z,10.40
2018-10-07T03:28:02.764Z,10.30
2018-10-07T03:30:32.129Z,10.30
2018-10-07T03:33:01.441Z,10.30
2018-10-07T03:35:30.730Z,10.20
2018-10-07T03:38:00.067Z,10.10
2018-10-07T03:40:29.355Z,10.10
2018-10-07T03:42:58.712Z,10.10
2018-10-07T03:45:28.003Z,10.10
2018-10-07T03:47:57.246Z,10.10
2018-10-07T03:50:26.633Z,10.10
2018-10-07T03:52:55.854Z,10.10
2018-10-07T03:55:25.211Z,10.10
2018-10-07T03:57:54.611Z,10.10
2018-10-07T04:00:24.394Z,10.10
2018-10-07T04:02:53.742Z,10.00
2018-10-07T04:05:23.054Z,10.00
2018-10-07T04:07:52.458Z,10.00
2018-10-07T04:10:21.726Z,10.00
2018-10-07T04:12:50.970Z,10.00
2018-10-07T04:15:20.334Z,10.00
2018-10-07T04:17:49.537Z,10.00
2018-10-07T04:20:18.791Z,10.00
2018-10-07T04:22:48.087Z,10.00
2018-10-07T04:25:17.367Z,10.00
2018-10-07T04:27:46.691Z,10.00
2018-10-07T04:30:15.977Z,10.00
2018-10-07T04:32:45.300Z,10.10
2018-10-07T04:35:14.573Z,10.10
2018-10-07T04:37:43.868Z,10.10
2018-10-07T04:40:13.223Z,10.10
2018-10-07T04:42:42.560Z,10.10
2018-10-07T04:45:11.891Z,10.20
2018-10-07T04:47:41.178Z,10.20
2018-10-07T04:50:13.361Z,10.20
2018-10-07T04:52:42.643Z,10.10
2018-10-07T04:55:11.955Z,10.10
2018-10-07T04:57:41.239Z,10.20
2018-10-07T05:00:10.639Z,10.10
2018-10-07T05:02:39.928Z,10.20
2018-10-07T05:05:09.366Z,10.20
2018-10-07T05:07:38.774Z,10.20
2018-10-07T05:10:53.994Z,10.10
2018-10-07T05:13:25.655Z,10.10
2018-10-07T05:16:00.566Z,10.10
2018-10-07T05:18:29.939Z,10.00
2018-10-07T05:20:59.329Z,10.00
2018-10-07T05:23:28.576Z,10.00
2018-10-07T05:25:57.944Z,10.00
2018-10-07T05:28:27.330Z,10.00
2018-10-07T05:30:56.699Z,10.00
2018-10-07T05:33:26.169Z,10.00
2018-10-07T05:35:55.535Z,9.90
2018-10-07T05:38:24.855Z,9.90
2018-10-07T05:40:54.178Z,9.90
2018-10-07T05:43:23.463Z,10.00
2018-10-07T05:45:52.770Z,10.00
2018-10-07T05:48:22.107Z,10.00
2018-10-07T05:50:51.476Z,10.00
2018-10-07T05:53:20.784Z,10.00
2018-10-07T05:55:50.214Z,10.00
2018-10-07T05:58:19.574Z,10.00
2018-10-07T06:00:49.130Z,10.00
2018-10-07T06:03:39.419Z,9.90
2018-10-07T06:06:09.156Z,9.90
2018-10-07T06:08:40.139Z,10.00
2018-10-07T06:11:09.589Z,10.00
2018-10-07T06:13:38.992Z,10.00
2018-10-07T06:16:08.504Z,10.00
2018-10-07T06:18:37.848Z,10.00
2018-10-07T06:21:07.287Z,10.00
2018-10-07T06:23:36.793Z,10.00
2018-10-07T06:26:06.162Z,10.10
2018-10-07T06:28:35.523Z,10.20
2018-10-07T06:31:04.908Z,10.30
2018-10-07T06:33:34.226Z,10.40
2018-10-07T06:38:32.385Z,10.60
2018-10-07T06:41:01.823Z,10.70
2018-10-07T06:43:31.192Z,10.80
2018-10-07T06:46:10.276Z,11.00
2018-10-07T06:48:39.878Z,11.10
2018-10-07T06:51:09.142Z,11.20
2018-10-07T06:53:38.523Z,11.30
2018-10-07T06:56:07.985Z,11.40
2018-10-07T06:58:37.437Z,11.40
2018-10-07T07:01:06.801Z,11.50
2018-10-07T07:03:36.079Z,11.60
2018-10-07T07:06:05.469Z,11.60
2018-10-07T07:08:34.727Z,11.70
2018-10-07T07:11:04.108Z,11.60
2018-10-07T07:13:33.448Z,11.60
2018-10-07T07:16:02.836Z,11.60
2018-10-07T07:18:32.155Z,11.70
2018-10-07T07:21:01.567Z,11.90
2018-10-07T07:23:31.132Z,12.20
2018-10-07T07:26:00.463Z,12.40
2018-10-07T07:28:29.763Z,12.60
2018-10-07T07:30:59.046Z,12.80
2018-10-07T07:33:28.352Z,12.90
2018-10-07T07:35:57.720Z,13.10
2018-10-07T07:38:27.035Z,13.20
2018-10-07T07:40:56.363Z,13.30
2018-10-07T07:43:25.680Z,13.40
2018-10-07T07:45:55.074Z,13.40
2018-10-07T07:48:24.565Z,13.40
2018-10-07T07:50:54.016Z,13.60
2018-10-07T07:53:23.419Z,13.70
2018-10-07T07:55:52.782Z,13.90
2018-10-07T07:58:22.117Z,14.00
2018-10-07T08:00:51.455Z,14.10
2018-10-07T08:03:20.704Z,14.20
2018-10-07T08:05:50.067Z,14.40
2018-10-07T08:08:19.404Z,14.50
2018-10-07T08:10:48.678Z,14.50
2018-10-07T08:13:17.943Z,14.60
2018-10-07T08:15:47.308Z,14.70
2018-10-07T08:18:16.681Z,14.80
2018-10-07T08:20:46.081Z,15.00
2018-10-07T08:23:15.520Z,15.10
2018-10-07T08:25:44.802Z,15.20
2018-10-07T08:28:14.076Z,15.30
2018-10-07T08:30:43.385Z,15.40
2018-10-07T08:33:12.935Z,15.50
2018-10-07T08:35:46.011Z,15.70
2018-10-07T08:38:15.405Z,15.90
2018-10-07T08:40:44.852Z,16.10
2018-10-07T08:43:14.483Z,16.30
2018-10-07T08:45:44.423Z,16.50
2018-10-07T08:48:14.191Z,16.80
2018-10-07T08:50:43.619Z,16.90
2018-10-07T08:53:13.378Z,17.00
2018-10-07T08:55:43.063Z,17.10
2018-10-07T08:58:12.347Z,17.20
2018-10-07T09:00:42.640Z,17.30
2018-10-07T09:03:13.316Z,17.20
2018-10-07T09:05:42.671Z,17.30
2018-10-07T09:08:11.991Z,17.50
2018-10-07T09:10:41.230Z,17.70
2018-10-07T09:13:11.253Z,17.90
2018-10-07T09:15:40.623Z,18.00
2018-10-07T09:18:09.936Z,18.00
2018-10-07T09:20:39.355Z,18.10
2018-10-07T09:23:10.079Z,18.10
2018-10-07T09:25:39.363Z,18.10
2018-10-07T09:28:09.027Z,18.00
2018-10-07T09:30:38.634Z,17.90
2018-10-07T09:33:08.182Z,17.90
2018-10-07T09:35:37.835Z,17.80
2018-10-07T09:38:07.252Z,17.70
2018-10-07T09:40:36.808Z,17.70
2018-10-07T09:43:11.808Z,17.70
2018-10-07T09:45:41.316Z,17.70
2018-10-07T09:48:13.930Z,17.70
2018-10-07T09:50:44.241Z,17.60
2018-10-07T09:53:13.575Z,17.60
2018-10-07T09:55:42.934Z,17.80
2018-10-07T09:58:12.197Z,17.70
2018-10-07T10:00:42.311Z,17.80
2018-10-07T10:03:12.662Z,17.80
2018-10-07T10:05:42.010Z,17.90
2018-10-07T10:08:11.263Z,18.00
2018-10-07T10:10:40.574Z,18.20
2018-10-07T10:13:09.871Z,18.20
2018-10-07T10:15:39.127Z,18.30
2018-10-07T10:18:11.488Z,18.30
2018-10-07T10:20:51.980Z,18.20
2018-10-07T10:25:38.336Z,18.20
2018-10-07T10:28:20.536Z,18.00
2018-10-07T10:31:32.245Z,17.60
2018-10-07T10:34:11.375Z,17.70
2018-10-07T10:37:08.658Z,17.70
2018-10-07T10:39:55.749Z,17.90
2018-10-07T10:42:46.801Z,17.80
2018-10-07T10:45:28.960Z,18.00
2018-10-07T10:48:15.753Z,18.00
2018-10-07T10:50:50.882Z,18.10
2018-10-07T10:53:30.236Z,18.10
2018-10-07T10:56:07.200Z,18.20
2018-10-07T10:58:53.622Z,18.20
2018-10-07T11:01:32.166Z,18.30
2018-10-07T11:04:24.337Z,18.30
2018-10-07T11:07:28.135Z,18.40
2018-10-07T11:10:42.986Z,18.50
2018-10-07T11:13:46.299Z,18.40
2018-10-07T11:16:27.115Z,18.50
2018-10-07T11:19:29.667Z,18.50
2018-10-07T11:24:10.235Z,18.70
2018-10-07T11:26:52.978Z,18.80
2018-10-07T11:29:47.283Z,18.90
2018-10-07T11:32:27.993Z,19.00
2018-10-07T11:35:14.023Z,18.90
2018-10-07T11:38:50.755Z,19.20
2018-10-07T11:41:29.677Z,19.60
2018-10-07T11:44:05.739Z,19.70
2018-10-07T11:47:45.716Z,20.00
2018-10-07T11:50:21.911Z,20.10
2018-10-07T11:52:55.971Z,20.00
2018-10-07T11:55:27.516Z,19.70
2018-10-07T11:57:57.518Z,19.70
2018-10-07T12:00:27.547Z,19.60
2018-10-07T12:02:57.586Z,19.70
2018-10-07T12:05:27.729Z,19.60
2018-10-07T12:07:57.945Z,19.50
2018-10-07T12:10:28.099Z,19.70
2018-10-07T12:12:58.376Z,19.90
2018-10-07T12:15:28.536Z,20.00
2018-10-07T12:17:58.713Z,20.00
2018-10-07T12:20:28.910Z,20.20
2018-10-07T12:22:59.135Z,20.20
2018-10-07T12:25:29.286Z,20.20
2018-10-07T12:27:59.579Z,20.30
2018-10-07T12:30:29.708Z,20.40
2018-10-07T12:33:00.327Z,20.40
2018-10-07T12:35:29.656Z,20.10
2018-10-07T12:37:59.175Z,19.90
2018-10-07T12:40:28.499Z,20.00
2018-10-07T12:42:58.516Z,20.10
2018-10-07T12:45:27.960Z,20.00
2018-10-07T12:47:57.324Z,19.90
2018-10-07T12:50:26.677Z,19.50
2018-10-07T12:52:56.895Z,19.60
2018-10-07T12:55:26.331Z,19.50
2018-10-07T12:57:55.743Z,19.30
2018-10-07T13:00:25.119Z,19.30
2018-10-07T13:02:54.519Z,19.10
2018-10-07T13:05:25.587Z,19.00
2018-10-07T13:07:55.963Z,18.90
2018-10-07T13:10:25.332Z,18.90
2018-10-07T13:12:54.643Z,19.10
2018-10-07T13:15:23.982Z,19.40
2018-10-07T13:17:53.387Z,19.40
2018-10-07T13:20:23.049Z,19.30
2018-10-07T13:22:52.996Z,19.20
2018-10-07T13:25:22.483Z,19.30
2018-10-07T13:27:51.766Z,19.20
2018-10-07T13:30:21.247Z,19.10
2018-10-07T13:32:50.690Z,19.20
2018-10-07T13:35:20.031Z,19.10
2018-10-07T13:37:49.448Z,19.20
2018-10-07T13:40:18.791Z,19.20
2018-10-07T13:42:48.170Z,19.10
2018-10-07T13:45:17.617Z,19.20
2018-10-07T13:47:46.958Z,19.20
2018-10-07T13:50:23.035Z,19.10
2018-10-07T13:52:52.454Z,19.10
2018-10-07T13:55:21.783Z,19.00
2018-10-07T13:57:51.129Z,19.10
2018-10-07T14:00:20.546Z,18.80
2018-10-07T14:02:49.962Z,18.60
2018-10-07T14:05:19.335Z,18.60
2018-10-07T14:07:48.682Z,18.60
2018-10-07T14:10:18.011Z,18.50
2018-10-07T14:12:47.340Z,18.30
2018-10-07T14:15:16.712Z,18.10
2018-10-07T14:17:46.286Z,18.10
2018-10-07T14:20:15.853Z,18.10
2018-10-07T14:22:45.155Z,18.00
2018-10-07T14:25:14.768Z,18.10
2018-10-07T14:27:44.225Z,18.00
2018-10-07T14:30:13.489Z,17.90
2018-10-07T14:32:52.892Z,18.00
2018-10-07T14:35:22.272Z,18.00
2018-10-07T14:37:55.096Z,17.80
2018-10-07T14:40:24.570Z,17.80
2018-10-07T14:42:53.859Z,17.90
2018-10-07T14:45:23.265Z,17.80
2018-10-07T14:47:52.726Z,17.90
2018-10-07T14:50:22.038Z,17.70
2018-10-07T14:52:52.356Z,17.70
2018-10-07T14:55:21.802Z,17.60
2018-10-07T14:57:51.129Z,17.40
2018-10-07T15:00:20.677Z,17.30
2018-10-07T15:02:50.010Z,17.30
2018-10-07T15:05:19.308Z,17.30
2018-10-07T15:07:48.645Z,17.30
2018-10-07T15:10:17.968Z,17.30
2018-10-07T15:12:47.389Z,17.30
2018-10-07T15:15:16.682Z,17.20
2018-10-07T15:17:45.998Z,17.30
2018-10-07T15:20:15.342Z,17.10
2018-10-07T15:22:44.714Z,17.10
2018-10-07T15:25:14.467Z,17.10
2018-10-07T15:27:44.066Z,17.00
2018-10-07T15:30:13.410Z,16.90
2018-10-07T15:32:42.816Z,16.90
2018-10-07T15:35:12.199Z,16.90
2018-10-07T15:37:41.565Z,16.90
2018-10-07T15:40:10.844Z,16.80
2018-10-07T15:42:40.242Z,16.80
2018-10-07T15:45:09.810Z,16.70
2018-10-07T15:47:39.458Z,16.60
2018-10-07T15:50:08.737Z,16.60
2018-10-07T15:52:37.981Z,16.50
2018-10-07T15:55:07.447Z,16.50
2018-10-07T15:57:36.835Z,16.50
2018-10-07T16:00:06.299Z,16.50
2018-10-07T16:02:35.695Z,16.40
2018-10-07T16:05:05.135Z,16.30
2018-10-07T16:07:34.434Z,16.30
2018-10-07T16:10:03.833Z,16.20
2018-10-07T16:12:33.099Z,16.10
2018-10-07T16:15:02.711Z,16.00
2018-10-07T16:17:31.978Z,15.90
2018-10-07T16:20:01.236Z,15.70
2018-10-07T16:22:30.614Z,15.60
2018-10-07T16:25:00.046Z,15.50
2018-10-07T16:27:29.394Z,15.50
2018-10-07T16:29:58.718Z,15.50
2018-10-07T16:32:28.087Z,15.50
2018-10-07T16:34:57.444Z,15.40
2018-10-07T16:37:26.730Z,15.30
2018-10-07T16:39:56.087Z,15.30
2018-10-07T16:42:25.339Z,15.10
2018-10-07T16:44:54.656Z,15.10
2018-10-07T16:47:24.135Z,15.00
2018-10-07T16:49:53.508Z,15.00
2018-10-07T16:52:22.852Z,15.00
2018-10-07T16:54:52.169Z,14.90
2018-10-07T16:57:21.459Z,15.00
2018-10-07T16:59:50.822Z,14.80
2018-10-07T17:02:20.121Z,14.80
2018-10-07T17:04:49.490Z,14.90
2018-10-07T17:07:18.784Z,14.80
2018-10-07T17:09:48.144Z,14.70
2018-10-07T17:12:17.434Z,14.60
2018-10-07T17:14:46.762Z,14.60
2018-10-07T17:17:16.143Z,14.50
2018-10-07T17:19:45.516Z,14.50
2018-10-07T17:22:18.055Z,14.40
2018-10-07T17:24:47.394Z,14.40
2018-10-07T17:27:16.998Z,14.40
2018-10-07T17:29:46.212Z,14.30
2018-10-07T17:32:15.591Z,14.20
2018-10-07T17:34:44.915Z,14.20
2018-10-07T17:37:14.307Z,14.20
2018-10-07T17:39:43.601Z,14.20
2018-10-07T17:42:12.951Z,14.20
2018-10-07T17:44:42.269Z,14.30
2018-10-07T17:47:11.631Z,14.30
2018-10-07T17:49:40.977Z,14.20
2018-10-07T17:52:10.342Z,14.20
2018-10-07T17:54:40.683Z,14.00
2018-10-07T17:57:12.135Z,14.00
2018-10-07T17:59:41.592Z,13.90
2018-10-07T18:02:11.008Z,13.90
2018-10-07T18:04:40.416Z,13.80
2018-10-07T18:07:21.140Z,13.80
2018-10-07T18:09:50.510Z,13.80
2018-10-07T18:12:19.895Z,13.70
2018-10-07T18:14:49.306Z,13.60
2018-10-07T18:17:18.651Z,13.50
2018-10-07T18:19:47.999Z,13.50
2018-10-07T18:22:18.138Z,13.40
2018-10-07T18:24:47.535Z,13.40
2018-10-07T18:27:16.868Z,13.40
2018-10-07T18:29:46.235Z,13.40
2018-10-07T18:32:15.863Z,13.30
2018-10-07T18:34:45.224Z,13.30
2018-10-07T18:37:14.566Z,13.30
2018-10-07T18:39:43.938Z,13.30
2018-10-07T18:42:13.316Z,13.30
2018-10-07T18:44:49.142Z,13.20
2018-10-07T18:47:21.165Z,13.10
2018-10-07T18:49:50.619Z,13.10
2018-10-07T18:52:20.062Z,13.10
2018-10-07T18:54:49.607Z,13.00
2018-10-07T18:57:18.779Z,12.90
2018-10-07T18:59:48.095Z,12.90
2018-10-07T19:02:17.395Z,12.80
2018-10-07T19:04:46.728Z,12.80
2018-10-07T19:07:16.256Z,12.80
2018-10-07T19:09:45.574Z,12.80
2018-10-07T19:12:14.844Z,12.70
2018-10-07T19:14:44.323Z,12.70
2018-10-07T19:17:13.679Z,12.60
2018-10-07T19:19:43.116Z,12.60
2018-10-07T19:22:12.460Z,12.60
2018-10-07T19:24:41.768Z,12.60
2018-10-07T19:27:11.082Z,12.50
2018-10-07T19:29:40.459Z,12.50
2018-10-07T19:32:09.699Z,12.50
2018-10-07T19:34:39.391Z,12.50
2018-10-07T19:37:08.911Z,12.40
2018-10-07T19:39:38.082Z,12.40
2018-10-07T19:42:07.556Z,12.30
2018-10-07T19:44:37.133Z,12.30
2018-10-07T19:47:06.548Z,12.20
2018-10-07T19:49:35.981Z,12.20
2018-10-07T19:52:05.283Z,12.20
2018-10-07T19:54:34.660Z,12.20
2018-10-07T19:57:03.968Z,12.20
2018-10-07T19:59:33.427Z,12.20
2018-10-07T20:02:02.723Z,12.10
2018-10-07T20:04:32.051Z,12.10
2018-10-07T20:07:01.681Z,12.10
2018-10-07T20:09:30.959Z,12.10
2018-10-07T20:12:00.397Z,12.10
2018-10-07T20:14:29.761Z,12.10
2018-10-07T20:16:59.057Z,12.10
2018-10-07T20:19:28.652Z,12.00
2018-10-07T20:21:57.908Z,12.00
2018-10-07T20:24:27.260Z,12.00
2018-10-07T20:26:56.870Z,12.00
2018-10-07T20:29:26.202Z,11.90
2018-10-07T20:31:55.523Z,11.90
2018-10-07T20:34:24.852Z,11.90
2018-10-07T20:36:54.139Z,11.90
2018-10-07T20:39:23.418Z,11.80
2018-10-07T20:41:52.984Z,11.80
2018-10-07T20:44:22.327Z,11.80
2018-10-07T20:46:51.701Z,11.70
2018-10-07T20:49:21.002Z,11.70
2018-10-07T20:51:53.280Z,11.80
2018-10-07T20:54:19.762Z,11.70
2018-10-07T20:56:49.127Z,11.70
2018-10-07T20:59:21.724Z,11.70
2018-10-07T21:01:51.099Z,11.70
2018-10-07T21:04:20.428Z,11.60
2018-10-07T21:06:49.871Z,11.70
2018-10-07T21:09:19.213Z,11.60
2018-10-07T21:11:48.572Z,11.60
2018-10-07T21:14:17.903Z,11.60
2018-10-07T21:16:47.283Z,11.50
2018-10-07T21:19:16.650Z,11.50
2018-10-07T21:21:46.091Z,11.50
2018-10-07T21:24:15.508Z,11.40
2018-10-07T21:26:44.829Z,11.40
2018-10-07T21:29:14.185Z,11.40
2018-10-07T21:31:43.573Z,11.30
2018-10-07T21:34:12.842Z,11.30
2018-10-07T21:36:42.098Z,11.30
2018-10-07T21:39:11.933Z,11.30
2018-10-07T21:41:41.339Z,11.30
2018-10-07T21:44:10.626Z,11.30
2018-10-07T21:46:39.993Z,11.30
2018-10-07T21:49:09.378Z,11.30
2018-10-07T21:51:38.754Z,11.20
2018-10-07T21:54:08.153Z,11.20
2018-10-07T21:56:37.443Z,11.20
2018-10-07T21:59:07.323Z,11.20
2018-10-07T22:01:36.852Z,11.20
2018-10-07T22:04:06.311Z,11.10
2018-10-07T22:06:35.609Z,11.10
2018-10-07T22:09:06.770Z,11.10
2018-10-07T22:11:36.078Z,11.10
2018-10-07T22:14:05.557Z,11.10
2018-10-07T22:16:34.885Z,11.10
2018-10-07T22:19:04.259Z,11.00
2018-10-07T22:21:33.564Z,11.00
2018-10-07T22:24:02.867Z,10.90
2018-10-07T22:26:32.158Z,10.90
2018-10-07T22:29:01.448Z,10.90
2018-10-07T22:31:30.778Z,10.90
2018-10-07T22:34:00.118Z,10.80
2018-10-07T22:36:29.414Z,10.80
2018-10-07T22:38:58.686Z,10.70
2018-10-07T22:41:27.990Z,10.70
2018-10-07T22:43:57.391Z,10.70
2018-10-07T22:46:26.693Z,10.60
2018-10-07T22:48:55.982Z,10.60
2018-10-07T22:51:25.371Z,10.60
2018-10-07T22:53:54.674Z,10.50
2018-10-07T22:56:23.918Z,10.50
2018-10-07T22:58:53.223Z,10.40
2018-10-07T23:01:22.530Z,10.40
2018-10-07T23:03:51.766Z,10.30
2018-10-07T23:06:21.036Z,10.20
2018-10-07T23:08:50.332Z,10.20
2018-10-07T23:11:19.608Z,10.10
2018-10-07T23:13:48.902Z,10.10
2018-10-07T23:16:18.174Z,10.00
2018-10-07T23:18:47.583Z,10.00
2018-10-07T23:21:16.899Z,9.90
2018-10-07T23:23:46.175Z,9.90
2018-10-07T23:26:15.472Z,9.90
2018-10-07T23:28:44.700Z,9.90
2018-10-07T23:31:13.991Z,9.90
2018-10-07T23:33:43.258Z,9.90
2018-10-07T23:36:12.553Z,9.80
2018-10-07T23:38:41.879Z,9.80
2018-10-07T23:41:11.235Z,9.80
2018-10-07T23:43:40.551Z,9.80
2018-10-07T23:46:09.815Z,9.80
2018-10-07T23:48:39.207Z,9.80
2018-10-07T23:51:08.544Z,9.80
2018-10-07T23:53:37.789Z,9.80
2018-10-07T23:56:07.668Z,9.80
2018-10-07T23:58:36.971Z,9.80
